createdAt,value
2018-11-26T00:02:19.770Z,23.37
2018-11-26T00:04:50.173Z,24.00
2018-11-26T00:07:20.241Z,26.33
2018-11-26T00:09:50.540Z,25.37
2018-11-26T00:12:21.047Z,24.17
2018-11-26T00:14:51.505Z,25.10
2018-11-26T00:17:21.997Z,24.57
2018-11-26T00:19:52.294Z,26.97
2018-11-26T00:22:22.806Z,24.80
2018-11-26T00:24:53.142Z,25.10
2018-11-26T00:27:23.470Z,26.10
2018-11-26T00:29:55.462Z,23.67
2018-11-26T00:32:26.353Z,22.60
2018-11-26T00:34:57.164Z,24.20
2018-11-26T00:37:27.536Z,23.17
2018-11-26T00:39:57.955Z,22.10
2018-11-26T00:42:28.482Z,21.47
2018-11-26T00:44:58.885Z,21.17
2018-11-26T00:47:29.428Z,21.67
2018-11-26T00:49:59.840Z,21.27
2018-11-26T00:52:30.250Z,20.47
2018-11-26T00:55:00.865Z,22.20
2018-11-26T00:57:31.789Z,23.27
2018-11-26T01:00:02.449Z,22.30
2018-11-26T01:02:32.966Z,22.87
2018-11-26T01:05:03.405Z,21.60
2018-11-26T01:07:34.177Z,21.77
2018-11-26T01:10:04.542Z,23.00
2018-11-26T01:12:34.923Z,22.77
2018-11-26T01:15:05.934Z,24.30
2018-11-26T01:17:36.415Z,23.27
2018-11-26T01:20:07.555Z,24.33
2018-11-26T01:22:37.873Z,25.70
2018-11-26T01:25:08.217Z,24.60
2018-11-26T01:27:38.652Z,25.80
2018-11-26T01:30:09.930Z,24.27
2018-11-26T01:32:40.543Z,22.83
2018-11-26T01:35:11.033Z,24.40
2018-11-26T01:37:41.504Z,24.00
2018-11-26T01:40:20.642Z,23.70
2018-11-26T01:42:51.515Z,23.17
2018-11-26T01:45:21.887Z,24.80
2018-11-26T01:47:52.259Z,24.13
2018-11-26T01:50:22.831Z,24.27
2018-11-26T01:52:53.317Z,27.57
2018-11-26T01:55:23.794Z,24.50
2018-11-26T01:57:54.242Z,23.47
2018-11-26T02:00:26.154Z,25.10
2018-11-26T02:02:56.512Z,24.97
2018-11-26T02:05:26.842Z,26.20
2018-11-26T02:07:57.374Z,26.90
2018-11-26T02:10:27.653Z,26.23
2018-11-26T02:12:58.393Z,26.00
2018-11-26T02:15:35.826Z,25.10
2018-11-26T02:18:06.853Z,27.20
2018-11-26T02:20:37.321Z,26.53
2018-11-26T02:23:08.058Z,25.43
2018-11-26T02:25:38.579Z,28.87
2018-11-26T02:28:08.927Z,29.63
2018-11-26T02:30:39.341Z,27.30
2018-11-26T02:33:09.715Z,26.37
2018-11-26T02:35:40.308Z,26.40
2018-11-26T02:38:10.606Z,27.50
2018-11-26T02:40:41.268Z,25.70
2018-11-26T02:43:11.740Z,23.50
2018-11-26T02:45:42.257Z,21.60
2018-11-26T02:48:12.976Z,20.10
2018-11-26T02:50:43.445Z,19.80
2018-11-26T02:53:13.724Z,18.47
2018-11-26T02:55:44.237Z,20.00
2018-11-26T02:58:14.858Z,18.07
2018-11-26T03:00:46.533Z,19.10
2018-11-26T03:03:17.420Z,19.03
2018-11-26T03:05:47.867Z,16.87
2018-11-26T03:08:18.414Z,16.40
2018-11-26T03:10:48.997Z,16.67
2018-11-26T03:13:20.333Z,15.80
2018-11-26T03:15:50.742Z,16.43
2018-11-26T03:18:21.396Z,16.17
2018-11-26T03:20:51.817Z,16.10
2018-11-26T03:23:22.190Z,17.33
2018-11-26T03:25:52.484Z,15.10
2018-11-26T03:28:23.026Z,16.03
2018-11-26T03:30:53.624Z,14.33
2018-11-26T03:33:23.989Z,13.50
2018-11-26T03:35:54.177Z,14.50
2018-11-26T03:38:29.982Z,14.60
2018-11-26T03:41:00.584Z,14.70
2018-11-26T03:43:30.903Z,14.17
2018-11-26T03:46:01.253Z,15.10
2018-11-26T03:48:31.836Z,15.00
2018-11-26T03:51:02.498Z,15.33
2018-11-26T03:53:32.755Z,13.57
2018-11-26T03:56:03.167Z,14.17
2018-11-26T03:58:33.198Z,15.83
2018-11-26T04:01:03.898Z,13.60
2018-11-26T04:03:34.171Z,13.40
2018-11-26T04:06:05.064Z,15.30
2018-11-26T04:08:35.444Z,14.13
2018-11-26T04:11:06.549Z,13.17
2018-11-26T04:13:37.040Z,15.00
2018-11-26T04:16:07.266Z,13.50
2018-11-26T04:18:37.716Z,16.00
2018-11-26T04:21:08.056Z,15.37
2018-11-26T04:23:38.517Z,15.53
2018-11-26T04:26:08.835Z,17.20
2018-11-26T04:28:39.099Z,16.07
2018-11-26T04:31:10.149Z,15.37
2018-11-26T04:33:40.584Z,15.50
2018-11-26T04:36:10.891Z,17.20
2018-11-26T04:38:41.469Z,17.20
2018-11-26T04:41:11.989Z,16.83
2018-11-26T04:43:42.635Z,16.90
2018-11-26T04:46:13.254Z,15.57
2018-11-26T04:48:43.683Z,16.97
2018-11-26T04:51:14.288Z,19.20
2018-11-26T04:53:45.085Z,16.87
2018-11-26T04:56:15.437Z,16.30
2018-11-26T04:58:46.006Z,15.83
2018-11-26T05:01:16.339Z,15.57
2018-11-26T05:03:46.814Z,17.40
2018-11-26T05:06:17.211Z,17.80
2018-11-26T05:08:47.767Z,19.10
2018-11-26T05:11:18.244Z,20.40
2018-11-26T05:13:48.812Z,19.53
2018-11-26T05:16:19.448Z,18.80
2018-11-26T05:18:49.974Z,18.87
2018-11-26T05:21:20.306Z,17.83
2018-11-26T05:23:50.768Z,19.20
2018-11-26T05:26:21.095Z,17.87
2018-11-26T05:28:52.273Z,21.10
2018-11-26T05:31:22.534Z,18.63
2018-11-26T05:33:52.774Z,21.20
2018-11-26T05:36:23.024Z,19.90
2018-11-26T05:38:54.026Z,19.43
2018-11-26T05:41:24.548Z,22.20
2018-11-26T05:43:55.095Z,21.90
2018-11-26T05:46:25.953Z,22.10
2018-11-26T05:48:56.597Z,23.10
2018-11-26T05:51:27.295Z,23.77
2018-11-26T05:53:57.740Z,22.93
2018-11-26T05:56:28.308Z,22.23
2018-11-26T05:58:58.697Z,22.83
2018-11-26T06:01:29.023Z,23.83
2018-11-26T06:03:59.908Z,24.10
2018-11-26T06:06:31.531Z,23.57
2018-11-26T06:09:02.030Z,25.20
2018-11-26T06:11:32.627Z,24.00
2018-11-26T06:14:03.097Z,24.07
2018-11-26T06:16:33.864Z,24.67
2018-11-26T06:19:04.627Z,23.80
2018-11-26T06:21:35.768Z,23.03
2018-11-26T06:24:06.467Z,25.07
2018-11-26T06:26:37.317Z,24.50
2018-11-26T06:29:07.541Z,27.50
2018-11-26T06:31:37.964Z,23.60
2018-11-26T06:34:08.413Z,22.13
2018-11-26T06:36:39.082Z,22.00
2018-11-26T06:39:10.288Z,22.37
2018-11-26T06:41:40.604Z,19.50
2018-11-26T06:44:11.021Z,20.73
2018-11-26T06:46:41.683Z,22.00
2018-11-26T06:49:12.114Z,21.60
2018-11-26T06:51:42.523Z,21.63
2018-11-26T06:54:13.012Z,20.67
2018-11-26T06:56:43.468Z,21.17
2018-11-26T06:59:13.782Z,23.80
2018-11-26T07:01:44.390Z,22.27
2018-11-26T07:04:14.905Z,22.60
2018-11-26T07:06:45.465Z,24.30
2018-11-26T07:09:15.921Z,23.17
2018-11-26T07:11:47.108Z,22.57
2018-11-26T07:14:17.711Z,21.97
2018-11-26T07:16:48.509Z,24.17
2018-11-26T07:19:19.086Z,25.70
2018-11-26T07:21:49.419Z,24.07
2018-11-26T07:24:20.117Z,25.87
2018-11-26T07:26:50.279Z,25.83
2018-11-26T07:29:24.228Z,30.43
2018-11-26T07:31:51.697Z,26.93
2018-11-26T07:34:22.377Z,26.87
2018-11-26T07:36:53.445Z,26.80
2018-11-26T07:39:24.134Z,25.97
2018-11-26T07:41:54.919Z,26.37
2018-11-26T07:44:25.549Z,25.00
2018-11-26T07:46:56.216Z,23.10
2018-11-26T07:49:27.248Z,25.47
2018-11-26T07:51:57.752Z,25.97
2018-11-26T07:54:28.242Z,24.60
2018-11-26T07:56:58.582Z,20.30
2018-11-26T07:59:29.080Z,19.40
2018-11-26T08:01:59.436Z,16.63
2018-11-26T08:04:29.835Z,19.10
2018-11-26T08:07:00.117Z,18.30
2018-11-26T08:09:30.426Z,16.53
2018-11-26T08:12:00.739Z,18.00
2018-11-26T08:14:31.262Z,19.40
2018-11-26T08:17:01.830Z,18.00
2018-11-26T08:19:32.288Z,18.13
2018-11-26T08:22:02.729Z,16.97
2018-11-26T08:24:33.156Z,17.73
2018-11-26T08:27:04.248Z,17.50
2018-11-26T08:29:34.718Z,18.30
2018-11-26T08:32:05.934Z,18.13
2018-11-26T08:34:36.849Z,18.80
2018-11-26T08:37:13.084Z,18.90
2018-11-26T08:39:48.910Z,20.23
2018-11-26T08:42:26.105Z,20.80
2018-11-26T08:45:00.718Z,19.10
2018-11-26T08:47:38.581Z,20.37
2018-11-26T08:50:10.180Z,20.47
2018-11-26T08:52:40.464Z,22.77
2018-11-26T08:55:11.541Z,20.30
2018-11-26T08:57:42.551Z,21.30
2018-11-26T09:00:13.574Z,20.73
2018-11-26T09:02:53.445Z,20.37
2018-11-26T09:05:29.067Z,18.60
2018-11-26T09:07:59.472Z,19.40
2018-11-26T09:10:30.089Z,19.80
2018-11-26T09:13:00.815Z,21.23
2018-11-26T09:15:31.413Z,20.27
2018-11-26T09:18:01.953Z,23.97
2018-11-26T09:20:32.387Z,21.53
2018-11-26T09:23:02.972Z,21.77
2018-11-26T09:25:33.856Z,23.83
2018-11-26T09:28:04.718Z,20.13
2018-11-26T09:30:36.107Z,22.30
2018-11-26T09:33:07.085Z,21.60
2018-11-26T09:35:38.066Z,23.03
2018-11-26T09:38:09.117Z,23.03
2018-11-26T09:40:39.914Z,22.60
2018-11-26T09:43:10.550Z,22.00
2018-11-26T09:45:41.263Z,21.73
2018-11-26T09:48:11.735Z,25.63
2018-11-26T09:50:42.173Z,25.30
2018-11-26T09:53:12.649Z,22.60
2018-11-26T09:55:43.128Z,23.03
2018-11-26T09:58:13.696Z,24.13
2018-11-26T10:00:44.677Z,23.03
2018-11-26T10:03:15.454Z,25.23
2018-11-26T10:05:46.186Z,23.60
2018-11-26T10:08:16.614Z,25.30
2018-11-26T10:10:47.206Z,21.00
2018-11-26T10:13:17.542Z,23.77
2018-11-26T10:15:48.148Z,22.23
2018-11-26T10:18:18.815Z,23.90
2018-11-26T10:20:49.612Z,22.90
2018-11-26T10:23:20.207Z,27.90
2018-11-26T10:25:50.589Z,27.10
2018-11-26T10:28:21.221Z,24.53
2018-11-26T10:30:51.830Z,29.43
2018-11-26T10:33:22.605Z,26.10
2018-11-26T10:35:52.978Z,26.83
2018-11-26T10:38:23.710Z,25.73
2018-11-26T10:40:54.314Z,28.77
2018-11-26T10:43:24.739Z,24.40
2018-11-26T10:45:55.343Z,34.40
2018-11-26T10:48:26.508Z,32.10
2018-11-26T10:50:57.066Z,31.27
2018-11-26T10:53:27.579Z,24.50
2018-11-26T10:55:58.207Z,22.73
2018-11-26T10:58:28.794Z,21.70
2018-11-26T11:01:02.653Z,21.50
2018-11-26T11:03:33.061Z,20.57
2018-11-26T11:06:03.664Z,20.47
2018-11-26T11:08:34.903Z,23.17
2018-11-26T11:11:05.798Z,22.70
2018-11-26T11:13:36.371Z,23.53
2018-11-26T11:16:08.156Z,24.40
2018-11-26T11:18:38.790Z,23.57
2018-11-26T11:21:09.524Z,22.57
2018-11-26T11:23:40.069Z,23.70
2018-11-26T11:26:10.998Z,23.90
2018-11-26T11:28:41.515Z,23.70
2018-11-26T11:31:12.252Z,19.63
2018-11-26T11:33:42.966Z,23.37
2018-11-26T11:36:13.910Z,38.10
2018-11-26T11:38:44.259Z,28.00
2018-11-26T11:41:14.992Z,27.23
2018-11-26T11:43:45.383Z,22.60
2018-11-26T11:46:15.895Z,26.53
2018-11-26T11:48:46.505Z,22.50
2018-11-26T11:51:17.083Z,23.50
2018-11-26T11:53:47.509Z,26.23
2018-11-26T11:56:19.815Z,29.50
2018-11-26T11:58:50.814Z,35.10
2018-11-26T12:01:21.253Z,28.10
2018-11-26T12:03:51.727Z,25.60
2018-11-26T12:06:22.466Z,26.23
2018-11-26T12:08:53.937Z,23.77
2018-11-26T12:11:24.498Z,27.53
2018-11-26T12:13:55.170Z,25.20
2018-11-26T12:16:25.584Z,24.40
2018-11-26T12:18:56.111Z,25.13
2018-11-26T12:21:26.779Z,22.70
2018-11-26T12:23:57.335Z,24.37
2018-11-26T12:26:27.943Z,24.10
2018-11-26T12:28:59.108Z,25.17
2018-11-26T12:31:29.586Z,23.33
2018-11-26T12:34:00.061Z,32.30
2018-11-26T12:36:30.534Z,24.40
2018-11-26T12:39:00.818Z,25.27
2018-11-26T12:41:31.391Z,24.60
2018-11-26T12:44:02.005Z,22.80
2018-11-26T12:46:32.309Z,27.10
2018-11-26T12:49:03.089Z,24.87
2018-11-26T12:51:33.938Z,23.43
2018-11-26T12:54:04.528Z,45.77
2018-11-26T12:56:35.475Z,34.03
2018-11-26T12:59:06.044Z,27.63
2018-11-26T13:01:37.098Z,26.60
2018-11-26T13:04:07.651Z,25.67
2018-11-26T13:06:38.414Z,25.20
2018-11-26T13:09:09.080Z,23.83
2018-11-26T13:16:54.089Z,23.63
2018-11-26T13:21:59.736Z,26.00
2018-11-26T13:27:05.856Z,24.30
2018-11-26T13:32:12.160Z,22.07
2018-11-26T13:37:17.806Z,23.87
2018-11-26T13:42:23.690Z,23.33
2018-11-26T13:47:29.049Z,25.50
2018-11-26T13:52:34.389Z,22.40
2018-11-26T13:57:39.877Z,20.50
2018-11-26T14:02:45.194Z,22.97
2018-11-26T14:07:50.746Z,22.60
2018-11-26T14:13:00.340Z,22.00
2018-11-26T14:18:06.051Z,23.07
2018-11-26T14:23:11.822Z,21.57
2018-11-26T14:28:17.730Z,17.53
2018-11-26T14:33:23.466Z,17.27
2018-11-26T14:38:29.130Z,19.07
2018-11-26T14:43:35.083Z,21.47
2018-11-26T14:48:40.799Z,21.40
2018-11-26T14:53:46.382Z,20.53
2018-11-26T14:58:51.781Z,19.57
2018-11-26T15:03:57.582Z,21.13
2018-11-26T15:09:03.104Z,21.03
2018-11-26T15:14:08.301Z,20.97
2018-11-26T15:19:13.968Z,20.70
2018-11-26T15:24:19.605Z,21.90
2018-11-26T15:29:25.106Z,21.30
2018-11-26T15:34:31.149Z,20.30
2018-11-26T15:39:37.572Z,22.10
2018-11-26T15:44:43.427Z,20.47
2018-11-26T15:49:49.039Z,19.10
2018-11-26T15:54:54.537Z,20.00
2018-11-26T15:59:59.823Z,20.47
2018-11-26T16:05:06.911Z,19.37
2018-11-26T16:10:14.125Z,19.07
2018-11-26T16:15:22.431Z,22.10
2018-11-26T16:20:28.847Z,23.53
2018-11-26T16:25:34.285Z,24.03
2018-11-26T16:30:40.633Z,22.93
2018-11-26T16:35:46.140Z,21.07
2018-11-26T16:40:52.610Z,21.23
2018-11-26T16:45:57.258Z,20.63
2018-11-26T16:51:03.198Z,24.07
2018-11-26T16:56:09.540Z,21.90
2018-11-26T17:01:15.832Z,21.80
2018-11-26T17:06:23.129Z,20.80
2018-11-26T17:11:28.690Z,20.80
2018-11-26T17:16:34.723Z,19.73
2018-11-26T17:21:40.700Z,24.40
2018-11-26T17:26:47.949Z,21.87
2018-11-26T17:31:54.664Z,20.17
2018-11-26T17:37:00.483Z,22.07
2018-11-26T17:42:07.930Z,22.30
2018-11-26T17:47:13.889Z,22.60
2018-11-26T17:52:20.961Z,24.37
2018-11-26T17:57:26.514Z,24.00
2018-11-26T18:02:33.440Z,25.57
2018-11-26T18:07:39.313Z,26.60
2018-11-26T18:12:44.882Z,28.27
2018-11-26T18:17:50.996Z,29.40
2018-11-26T18:22:56.463Z,30.17
2018-11-26T18:28:03.719Z,30.47
2018-11-26T18:33:10.559Z,27.40
2018-11-26T18:38:16.185Z,28.80
2018-11-26T18:43:22.745Z,25.23
2018-11-26T18:48:28.253Z,22.90
2018-11-26T18:53:33.677Z,22.57
2018-11-26T18:58:39.322Z,23.83
2018-11-26T19:03:45.559Z,22.10
2018-11-26T19:08:51.192Z,24.80
2018-11-26T19:14:08.022Z,26.83
2018-11-26T19:19:13.707Z,24.97
2018-11-26T19:24:19.305Z,24.63
2018-11-26T19:29:24.794Z,25.30
2018-11-26T19:34:30.541Z,26.10
2018-11-26T19:39:36.216Z,26.20
2018-11-26T19:44:42.028Z,24.83
2018-11-26T19:49:47.541Z,26.73
2018-11-26T19:54:53.334Z,25.80
2018-11-26T19:59:59.014Z,26.10
2018-11-26T20:05:05.284Z,25.70
2018-11-26T20:10:10.810Z,27.23
2018-11-26T20:15:17.671Z,24.70
2018-11-26T20:20:24.465Z,22.30
2018-11-26T20:25:30.024Z,25.30
2018-11-26T20:30:35.765Z,22.40
2018-11-26T20:35:41.248Z,23.60
2018-11-26T20:40:46.860Z,23.40
2018-11-26T20:45:52.647Z,22.80
2018-11-26T20:50:58.240Z,19.90
2018-11-26T20:56:08.370Z,24.97
2018-11-26T21:01:14.279Z,23.10
2018-11-26T21:06:19.906Z,22.27
2018-11-26T21:11:25.304Z,25.30
2018-11-26T21:16:31.001Z,21.17
2018-11-26T21:21:37.277Z,23.67
2018-11-26T21:26:42.850Z,22.60
2018-11-26T21:31:48.755Z,23.37
2018-11-26T21:36:54.097Z,23.40
2018-11-26T21:41:59.678Z,22.57
2018-11-26T21:47:05.689Z,23.30
2018-11-26T21:52:11.552Z,23.30
2018-11-26T21:57:17.434Z,19.73
2018-11-26T22:02:23.340Z,22.00
2018-11-26T22:07:28.951Z,22.07
2018-11-26T22:12:34.715Z,22.87
2018-11-26T22:17:40.947Z,24.27
2018-11-26T22:22:46.473Z,23.37
2018-11-26T22:27:53.043Z,21.50
2018-11-26T22:32:58.506Z,20.80
2018-11-26T22:38:04.424Z,21.30
2018-11-26T22:43:09.840Z,22.23
2018-11-26T22:48:15.487Z,21.23
2018-11-26T22:53:20.970Z,20.87
2018-11-26T22:58:26.538Z,21.47
2018-11-26T23:03:32.322Z,23.30
2018-11-26T23:08:37.994Z,25.73
2018-11-26T23:13:43.604Z,22.40
2018-11-26T23:18:48.903Z,24.60
2018-11-26T23:23:54.259Z,25.50
2018-11-26T23:28:59.570Z,24.20
2018-11-26T23:34:05.079Z,24.00
2018-11-26T23:39:10.468Z,22.77
2018-11-26T23:44:16.361Z,25.30
2018-11-26T23:49:21.785Z,23.30
2018-11-26T23:54:27.214Z,24.20
2018-11-26T23:59:32.653Z,20.77
